sensor_id;sensor_type;location;lat;lon;timestamp;pressure;altitude;pressure_sealevel;temperature;humidity
51496;BME280;37572;52.094;4.870;2022-08-19T00:00:20;101357.19;;;18.06;100.00
51496;BME280;37572;52.094;4.870;2022-08-19T00:02:45;101347.38;;;18.05;100.00
51496;BME280;37572;52.094;4.870;2022-08-19T00:05:12;101344.63;;;18.05;100.00
51496;BME280;37572;52.094;4.870;2022-08-19T00:07:39;101348.22;;;18.06;100.00
51496;BME280;37572;52.094;4.870;2022-08-19T00:10:06;101349.03;;;18.06;100.00
51496;BME280;37572;52.094;4.870;2022-08-19T00:12:33;101345.25;;;18.07;100.00
51496;BME280;37572;52.094;4.870;2022-08-19T00:14:59;101351.25;;;18.09;100.00
51496;BME280;37572;52.094;4.870;2022-08-19T00:17:24;101359.00;;;18.00;100.00
51496;BME280;37572;52.094;4.870;2022-08-19T00:19:49;101366.13;;;18.02;100.00
51496;BME280;37572;52.094;4.870;2022-08-19T00:22:15;101359.34;;;18.04;100.00
51496;BME280;37572;52.094;4.870;2022-08-19T00:24:43;101362.66;;;18.06;100.00
51496;BME280;37572;52.094;4.870;2022-08-19T00:27:08;101356.97;;;18.08;100.00
51496;BME280;37572;52.094;4.870;2022-08-19T00:29:34;101355.03;;;18.08;100.00
51496;BME280;37572;52.094;4.870;2022-08-19T00:31:59;101355.03;;;18.08;100.00
51496;BME280;37572;52.094;4.870;2022-08-19T00:34:25;101353.97;;;18.09;100.00
51496;BME280;37572;52.094;4.870;2022-08-19T00:36:54;101347.47;;;18.10;100.00
51496;BME280;37572;52.094;4.870;2022-08-19T00:39:20;101346.38;;;18.11;100.00
51496;BME280;37572;52.094;4.870;2022-08-19T00:41:47;101350.75;;;18.12;100.00
51496;BME280;37572;52.094;4.870;2022-08-19T00:44:15;101344.25;;;18.13;100.00
51496;BME280;37572;52.094;4.870;2022-08-19T00:46:44;101337.94;;;18.13;100.00
51496;BME280;37572;52.094;4.870;2022-08-19T00:49:16;101337.38;;;18.11;100.00
51496;BME280;37572;52.094;4.870;2022-08-19T00:51:44;101339.03;;;18.12;100.00
51496;BME280;37572;52.094;4.870;2022-08-19T00:54:11;101339.28;;;18.10;100.00
51496;BME280;37572;52.094;4.870;2022-08-19T00:56:36;101344.75;;;18.10;100.00
51496;BME280;37572;52.094;4.870;2022-08-19T00:59:04;101353.50;;;18.12;100.00
51496;BME280;37572;52.094;4.870;2022-08-19T01:01:35;101344.75;;;18.10;100.00
51496;BME280;37572;52.094;4.870;2022-08-19T01:04:00;101343.91;;;18.10;100.00
51496;BME280;37572;52.094;4.870;2022-08-19T01:06:26;101350.19;;;18.10;100.00
51496;BME280;37572;52.094;4.870;2022-08-19T01:08:53;101354.56;;;18.11;100.00
51496;BME280;37572;52.094;4.870;2022-08-19T01:11:19;101352.69;;;18.12;100.00
51496;BME280;37572;52.094;4.870;2022-08-19T01:13:45;101351.81;;;18.11;100.00
51496;BME280;37572;52.094;4.870;2022-08-19T01:16:13;101356.22;;;18.12;100.00
51496;BME280;37572;52.094;4.870;2022-08-19T01:18:40;101348.03;;;18.12;100.00
51496;BME280;37572;52.094;4.870;2022-08-19T01:21:18;101348.84;;;18.13;100.00
51496;BME280;37572;52.094;4.870;2022-08-19T01:23:46;101352.50;;;18.18;100.00
51496;BME280;37572;52.094;4.870;2022-08-19T01:26:20;101353.91;;;18.21;100.00
51496;BME280;37572;52.094;4.870;2022-08-19T01:28:48;101358.28;;;18.22;100.00
51496;BME280;37572;52.094;4.870;2022-08-19T01:31:18;101347.03;;;18.18;100.00
51496;BME280;37572;52.094;4.870;2022-08-19T01:33:46;101350.28;;;18.15;100.00
51496;BME280;37572;52.094;4.870;2022-08-19T01:36:22;101350.53;;;18.14;100.00
51496;BME280;37572;52.094;4.870;2022-08-19T01:38:48;101346.97;;;18.13;100.00
51496;BME280;37572;52.094;4.870;2022-08-19T01:41:16;101349.94;;;18.12;100.00
51496;BME280;37572;52.094;4.870;2022-08-19T01:43:42;101359.44;;;18.09;100.00
51496;BME280;37572;52.094;4.870;2022-08-19T01:46:08;101358.88;;;18.07;100.00
51496;BME280;37572;52.094;4.870;2022-08-19T01:48:38;101362.91;;;18.05;100.00
51496;BME280;37572;52.094;4.870;2022-08-19T01:51:04;101354.16;;;18.03;100.00
51496;BME280;37572;52.094;4.870;2022-08-19T01:53:30;101361.47;;;18.02;100.00
51496;BME280;37572;52.094;4.870;2022-08-19T01:55:56;101358.19;;;18.00;100.00
51496;BME280;37572;52.094;4.870;2022-08-19T01:58:26;101360.34;;;17.98;100.00
51496;BME280;37572;52.094;4.870;2022-08-19T02:00:54;101351.56;;;17.96;100.00
51496;BME280;37572;52.094;4.870;2022-08-19T02:03:19;101355.88;;;17.92;100.00
51496;BME280;37572;52.094;4.870;2022-08-19T02:05:44;101358.84;;;17.90;100.00
51496;BME280;37572;52.094;4.870;2022-08-19T02:08:11;101365.81;;;17.86;100.00
51496;BME280;37572;52.094;4.870;2022-08-19T02:10:43;101362.78;;;17.82;100.00
51496;BME280;37572;52.094;4.870;2022-08-19T02:13:10;101371.19;;;17.81;100.00
51496;BME280;37572;52.094;4.870;2022-08-19T02:15:35;101362.09;;;17.75;100.00
51496;BME280;37572;52.094;4.870;2022-08-19T02:18:01;101364.81;;;17.75;100.00
51496;BME280;37572;52.094;4.870;2022-08-19T02:20:26;101365.06;;;17.74;100.00
51496;BME280;37572;52.094;4.870;2022-08-19T02:22:51;101363.63;;;17.71;100.00
51496;BME280;37572;52.094;4.870;2022-08-19T02:25:17;101358.44;;;17.70;100.00
51496;BME280;37572;52.094;4.870;2022-08-19T02:27:43;101356.19;;;17.67;100.00
51496;BME280;37572;52.094;4.870;2022-08-19T02:30:12;101360.59;;;17.68;100.00
51496;BME280;37572;52.094;4.870;2022-08-19T02:32:38;101357.38;;;17.71;100.00
51496;BME280;37572;52.094;4.870;2022-08-19T02:35:04;101352.75;;;17.71;100.00
51496;BME280;37572;52.094;4.870;2022-08-19T02:37:29;101354.66;;;17.71;100.00
51496;BME280;37572;52.094;4.870;2022-08-19T02:40:14;101356.78;;;17.69;100.00
51496;BME280;37572;52.094;4.870;2022-08-19T02:42:40;101354.88;;;17.69;100.00
51496;BME280;37572;52.094;4.870;2022-08-19T02:45:06;101342.91;;;17.70;100.00
51496;BME280;37572;52.094;4.870;2022-08-19T02:47:32;101341.59;;;17.73;100.00
51496;BME280;37572;52.094;4.870;2022-08-19T02:50:00;101346.81;;;17.74;100.00
51496;BME280;37572;52.094;4.870;2022-08-19T02:52:26;101352.25;;;17.74;100.00
51496;BME280;37572;52.094;4.870;2022-08-19T02:54:52;101338.38;;;17.76;100.00
51496;BME280;37572;52.094;4.870;2022-08-19T02:57:17;101343.84;;;17.76;100.00
51496;BME280;37572;52.094;4.870;2022-08-19T02:59:43;101348.78;;;17.79;100.00
51496;BME280;37572;52.094;4.870;2022-08-19T03:02:08;101341.47;;;17.79;100.00
51496;BME280;37572;52.094;4.870;2022-08-19T03:04:34;101345.25;;;17.78;100.00
51496;BME280;37572;52.094;4.870;2022-08-19T03:06:59;101345.25;;;17.78;100.00
51496;BME280;37572;52.094;4.870;2022-08-19T03:09:24;101345.50;;;17.77;100.00
51496;BME280;37572;52.094;4.870;2022-08-19T03:11:49;101343.84;;;17.76;100.00
51496;BME280;37572;52.094;4.870;2022-08-19T03:14:15;101323.94;;;17.75;100.00
51496;BME280;37572;52.094;4.870;2022-08-19T03:16:47;101334.00;;;17.75;100.00
51496;BME280;37572;52.094;4.870;2022-08-19T03:19:15;101325.25;;;17.73;100.00
51496;BME280;37572;52.094;4.870;2022-08-19T03:21:42;101329.28;;;17.70;100.00
51496;BME280;37572;52.094;4.870;2022-08-19T03:24:09;101312.63;;;17.67;100.00
51496;BME280;37572;52.094;4.870;2022-08-19T03:26:39;101322.69;;;17.66;100.00
51496;BME280;37572;52.094;4.870;2022-08-19T03:29:05;101317.81;;;17.68;100.00
51496;BME280;37572;52.094;4.870;2022-08-19T03:31:30;101313.19;;;17.69;100.00
51496;BME280;37572;52.094;4.870;2022-08-19T03:33:56;101322.94;;;17.64;100.00
51496;BME280;37572;52.094;4.870;2022-08-19T03:36:24;101323.75;;;17.65;100.00
51496;BME280;37572;52.094;4.870;2022-08-19T03:38:52;101318.81;;;17.62;100.00
51496;BME280;37572;52.094;4.870;2022-08-19T03:41:24;101320.09;;;17.59;100.00
51496;BME280;37572;52.094;4.870;2022-08-19T03:43:49;101319.03;;;17.60;100.00
51496;BME280;37572;52.094;4.870;2022-08-19T03:46:17;101320.34;;;17.58;100.00
51496;BME280;37572;52.094;4.870;2022-08-19T03:48:46;101323.91;;;17.58;100.00
51496;BME280;37572;52.094;4.870;2022-08-19T03:51:21;101332.09;;;17.58;100.00
51496;BME280;37572;52.094;4.870;2022-08-19T03:53:47;101322.50;;;17.56;100.00
51496;BME280;37572;52.094;4.870;2022-08-19T03:56:12;101326.28;;;17.55;100.00
51496;BME280;37572;52.094;4.870;2022-08-19T03:58:38;101324.66;;;17.54;100.00
51496;BME280;37572;52.094;4.870;2022-08-19T04:01:11;101326.53;;;17.53;100.00
51496;BME280;37572;52.094;4.870;2022-08-19T04:03:37;101324.91;;;17.52;100.00
51496;BME280;37572;52.094;4.870;2022-08-19T04:06:24;101334.47;;;17.55;100.00
51496;BME280;37572;52.094;4.870;2022-08-19T04:08:52;101341.81;;;17.54;100.00
51496;BME280;37572;52.094;4.870;2022-08-19T04:11:24;101335.63;;;17.59;100.00
51496;BME280;37572;52.094;4.870;2022-08-19T04:13:51;101333.97;;;17.58;100.00
51496;BME280;37572;52.094;4.870;2022-08-19T04:16:18;101345.09;;;17.56;100.00
51496;BME280;37572;52.094;4.870;2022-08-19T04:18:46;101333.16;;;17.57;100.00
51496;BME280;37572;52.094;4.870;2022-08-19T04:21:21;101339.16;;;17.59;100.00
51496;BME280;37572;52.094;4.870;2022-08-19T04:23:47;101331.84;;;17.60;100.00
51496;BME280;37572;52.094;4.870;2022-08-19T04:26:18;101340.91;;;17.65;100.00
51496;BME280;37572;52.094;4.870;2022-08-19T04:28:44;101338.56;;;17.69;100.00
51496;BME280;37572;52.094;4.870;2022-08-19T04:31:17;101335.34;;;17.72;100.00
51496;BME280;37572;52.094;4.870;2022-08-19T04:33:43;101333.91;;;17.70;100.00
51496;BME280;37572;52.094;4.870;2022-08-19T04:36:19;101330.72;;;17.73;100.00
51496;BME280;37572;52.094;4.870;2022-08-19T04:38:46;101324.53;;;17.77;100.00
51496;BME280;37572;52.094;4.870;2022-08-19T04:41:11;101327.25;;;17.77;100.00
51496;BME280;37572;52.094;4.870;2022-08-19T04:44:09;101327.25;;;17.77;100.00
51496;BME280;37572;52.094;4.870;2022-08-19T04:46:35;101333.19;;;17.74;100.00
51496;BME280;37572;52.094;4.870;2022-08-19T04:49:03;101332.13;;;17.75;100.00
51496;BME280;37572;52.094;4.870;2022-08-19T04:51:29;101339.69;;;17.73;100.00
51496;BME280;37572;52.094;4.870;2022-08-19T04:53:56;101341.59;;;17.73;100.00
51496;BME280;37572;52.094;4.870;2022-08-19T04:56:22;101344.06;;;17.74;100.00
51496;BME280;37572;52.094;4.870;2022-08-19T04:58:48;101341.72;;;17.78;100.00
51496;BME280;37572;52.094;4.870;2022-08-19T05:01:24;101336.84;;;17.80;100.00
51496;BME280;37572;52.094;4.870;2022-08-19T05:03:50;101332.31;;;17.86;100.00
51496;BME280;37572;52.094;4.870;2022-08-19T05:06:18;101342.59;;;17.83;100.00
51496;BME280;37572;52.094;4.870;2022-08-19T05:08:44;101354.53;;;17.94;100.00
51496;BME280;37572;52.094;4.870;2022-08-19T05:11:13;101361.41;;;17.97;100.00
51496;BME280;37572;52.094;4.870;2022-08-19T05:13:39;101359.25;;;17.99;100.00
51496;BME280;37572;52.094;4.870;2022-08-19T05:16:05;101375.34;;;18.00;100.00
51496;BME280;37572;52.094;4.870;2022-08-19T05:18:31;101367.53;;;18.04;100.00
51496;BME280;37572;52.094;4.870;2022-08-19T05:21:17;101364.06;;;18.09;100.00
51496;BME280;37572;52.094;4.870;2022-08-19T05:24:03;101367.69;;;18.14;100.00
51496;BME280;37572;52.094;4.870;2022-08-19T05:26:30;101366.63;;;18.15;100.00
51496;BME280;37572;52.094;4.870;2022-08-19T05:28:55;101362.59;;;18.18;100.00
51496;BME280;37572;52.094;4.870;2022-08-19T05:31:21;101361.84;;;18.23;100.00
51496;BME280;37572;52.094;4.870;2022-08-19T05:33:47;101359.19;;;18.28;100.00
51496;BME280;37572;52.094;4.870;2022-08-19T05:36:13;101361.16;;;18.32;100.00
51496;BME280;37572;52.094;4.870;2022-08-19T05:38:39;101365.88;;;18.37;100.00
51496;BME280;37572;52.094;4.870;2022-08-19T05:41:12;101357.44;;;18.39;100.00
51496;BME280;37572;52.094;4.870;2022-08-19T05:43:38;101360.34;;;18.32;100.00
51496;BME280;37572;52.094;4.870;2022-08-19T05:46:04;101362.66;;;18.40;100.00
51496;BME280;37572;52.094;4.870;2022-08-19T05:48:31;101367.69;;;18.31;100.00
51496;BME280;37572;52.094;4.870;2022-08-19T05:50:57;101356.22;;;18.29;100.00
51496;BME280;37572;52.094;4.870;2022-08-19T05:53:23;101357.13;;;18.35;100.00
51496;BME280;37572;52.094;4.870;2022-08-19T05:55:49;101359.28;;;18.50;100.00
51496;BME280;37572;52.094;4.870;2022-08-19T05:58:14;101363.31;;;18.47;100.00
51496;BME280;37572;52.094;4.870;2022-08-19T06:00:39;101364.88;;;18.60;100.00
51496;BME280;37572;52.094;4.870;2022-08-19T06:03:07;101354.19;;;18.59;100.00
51496;BME280;37572;52.094;4.870;2022-08-19T06:05:32;101357.81;;;18.81;100.00
51496;BME280;37572;52.094;4.870;2022-08-19T06:07:58;101366.06;;;18.86;100.00
51496;BME280;37572;52.094;4.870;2022-08-19T06:10:27;101357.97;;;18.92;100.00
51496;BME280;37572;52.094;4.870;2022-08-19T06:12:53;101367.03;;;18.97;100.00
51496;BME280;37572;52.094;4.870;2022-08-19T06:15:18;101363.91;;;19.05;100.00
51496;BME280;37572;52.094;4.870;2022-08-19T06:17:44;101366.38;;;19.07;100.00
51496;BME280;37572;52.094;4.870;2022-08-19T06:20:11;101367.69;;;19.04;100.00
51496;BME280;37572;52.094;4.870;2022-08-19T06:22:42;101362.81;;;19.29;100.00
51496;BME280;37572;52.094;4.870;2022-08-19T06:25:09;101349.78;;;19.36;100.00
51496;BME280;37572;52.094;4.870;2022-08-19T06:27:35;101347.78;;;19.53;100.00
51496;BME280;37572;52.094;4.870;2022-08-19T06:30:02;101335.53;;;19.56;100.00
51496;BME280;37572;52.094;4.870;2022-08-19T06:32:27;101341.44;;;19.75;100.00
51496;BME280;37572;52.094;4.870;2022-08-19T06:34:53;101346.91;;;19.97;100.00
51496;BME280;37572;52.094;4.870;2022-08-19T06:37:18;101356.69;;;19.93;100.00
51496;BME280;37572;52.094;4.870;2022-08-19T06:39:44;101362.00;;;20.05;100.00
51496;BME280;37572;52.094;4.870;2022-08-19T06:42:11;101356.47;;;20.00;100.00
51496;BME280;37572;52.094;4.870;2022-08-19T06:44:40;101356.69;;;19.93;100.00
51496;BME280;37572;52.094;4.870;2022-08-19T06:47:08;101362.03;;;20.10;100.00
51496;BME280;37572;52.094;4.870;2022-08-19T06:49:35;101363.81;;;20.26;100.00
51496;BME280;37572;52.094;4.870;2022-08-19T06:52:01;101364.91;;;20.30;100.00
51496;BME280;37572;52.094;4.870;2022-08-19T06:54:27;101359.84;;;20.44;100.00
51496;BME280;37572;52.094;4.870;2022-08-19T06:57:00;101366.16;;;20.50;100.00
51496;BME280;37572;52.094;4.870;2022-08-19T06:59:30;101361.44;;;20.40;100.00
51496;BME280;37572;52.094;4.870;2022-08-19T07:01:59;101374.25;;;20.35;100.00
51496;BME280;37572;52.094;4.870;2022-08-19T07:04:28;101382.16;;;20.31;100.00
51496;BME280;37572;52.094;4.870;2022-08-19T07:07:02;101375.66;;;20.37;100.00
51496;BME280;37572;52.094;4.870;2022-08-19T07:09:28;101376.19;;;20.39;100.00
51496;BME280;37572;52.094;4.870;2022-08-19T07:11:54;101375.22;;;20.51;100.00
51496;BME280;37572;52.094;4.870;2022-08-19T07:14:26;101386.69;;;20.53;100.00
51496;BME280;37572;52.094;4.870;2022-08-19T07:16:54;101379.97;;;20.65;100.00
51496;BME280;37572;52.094;4.870;2022-08-19T07:19:21;101383.56;;;20.71;100.00
51496;BME280;37572;52.094;4.870;2022-08-19T07:21:49;101383.28;;;20.67;100.00
51496;BME280;37572;52.094;4.870;2022-08-19T07:24:18;101378.63;;;20.68;100.00
51496;BME280;37572;52.094;4.870;2022-08-19T07:26:44;101384.56;;;21.02;100.00
51496;BME280;37572;52.094;4.870;2022-08-19T07:29:10;101387.88;;;21.10;98.56
51496;BME280;37572;52.094;4.870;2022-08-19T07:31:36;101388.22;;;21.18;97.69
51496;BME280;37572;52.094;4.870;2022-08-19T07:34:05;101386.88;;;21.26;98.13
51496;BME280;37572;52.094;4.870;2022-08-19T07:36:33;101396.16;;;21.15;97.94
51496;BME280;37572;52.094;4.870;2022-08-19T07:39:01;101389.88;;;21.25;98.34
51496;BME280;37572;52.094;4.870;2022-08-19T07:41:29;101394.81;;;21.33;97.99
51496;BME280;37572;52.094;4.870;2022-08-19T07:43:58;101390.41;;;21.27;98.00
51496;BME280;37572;52.094;4.870;2022-08-19T07:46:24;101402.50;;;21.31;97.28
51496;BME280;37572;52.094;4.870;2022-08-19T07:48:51;101394.28;;;21.36;96.38
51496;BME280;37572;52.094;4.870;2022-08-19T07:51:20;101392.94;;;21.38;96.88
51496;BME280;37572;52.094;4.870;2022-08-19T07:53:47;101404.97;;;21.32;95.09
51496;BME280;37572;52.094;4.870;2022-08-19T07:56:13;101407.72;;;21.37;96.29
51496;BME280;37572;52.094;4.870;2022-08-19T07:58:42;101411.13;;;21.55;95.25
51496;BME280;37572;52.094;4.870;2022-08-19T08:01:10;101407.81;;;21.53;95.87
51496;BME280;37572;52.094;4.870;2022-08-19T08:03:36;101407.84;;;21.58;95.11
51496;BME280;37572;52.094;4.870;2022-08-19T08:06:21;101403.47;;;21.72;95.65
51496;BME280;37572;52.094;4.870;2022-08-19T08:09:05;101402.69;;;21.82;96.13
51496;BME280;37572;52.094;4.870;2022-08-19T08:11:41;101410.94;;;22.08;95.21
51496;BME280;37572;52.094;4.870;2022-08-19T08:14:08;101409.88;;;22.40;94.54
51496;BME280;37572;52.094;4.870;2022-08-19T08:16:36;101412.91;;;22.33;91.42
51496;BME280;37572;52.094;4.870;2022-08-19T08:19:05;101416.47;;;22.44;91.06
51496;BME280;37572;52.094;4.870;2022-08-19T08:21:32;101418.97;;;22.40;91.38
51496;BME280;37572;52.094;4.870;2022-08-19T08:23:57;101421.13;;;22.54;92.63
51496;BME280;37572;52.094;4.870;2022-08-19T08:26:23;101423.06;;;22.58;92.93
51496;BME280;37572;52.094;4.870;2022-08-19T08:28:50;101419.50;;;22.58;92.05
51496;BME280;37572;52.094;4.870;2022-08-19T08:31:15;101415.91;;;22.73;91.10
51496;BME280;37572;52.094;4.870;2022-08-19T08:33:42;101419.19;;;22.65;90.13
51496;BME280;37572;52.094;4.870;2022-08-19T08:36:08;101426.06;;;22.57;91.14
51496;BME280;37572;52.094;4.870;2022-08-19T08:38:34;101425.50;;;22.60;91.51
51496;BME280;37572;52.094;4.870;2022-08-19T08:41:10;101426.34;;;22.55;91.03
51496;BME280;37572;52.094;4.870;2022-08-19T08:43:45;101424.13;;;22.78;89.66
51496;BME280;37572;52.094;4.870;2022-08-19T08:46:21;101431.78;;;22.86;87.21
51496;BME280;37572;52.094;4.870;2022-08-19T08:51:38;101437.31;;;22.76;86.23
51496;BME280;37572;52.094;4.870;2022-08-19T08:54:08;101429.31;;;22.85;86.98
51496;BME280;37572;52.094;4.870;2022-08-19T08:56:35;101428.50;;;22.89;85.65
51496;BME280;37572;52.094;4.870;2022-08-19T08:59:06;101431.22;;;23.20;85.81
51496;BME280;37572;52.094;4.870;2022-08-19T09:01:34;101436.47;;;23.72;84.78
51496;BME280;37572;52.094;4.870;2022-08-19T09:03:59;101436.50;;;23.66;81.24
51496;BME280;37572;52.094;4.870;2022-08-19T09:06:44;101443.94;;;23.61;81.62
51496;BME280;37572;52.094;4.870;2022-08-19T09:09:32;101441.53;;;23.44;81.16
51496;BME280;37572;52.094;4.870;2022-08-19T09:12:18;101439.03;;;23.53;81.07
51496;BME280;37572;52.094;4.870;2022-08-19T09:14:53;101437.47;;;23.36;80.52
51496;BME280;37572;52.094;4.870;2022-08-19T09:17:23;101444.19;;;23.64;80.63
51496;BME280;37572;52.094;4.870;2022-08-19T09:22:39;101445.84;;;23.71;81.00
51496;BME280;37572;52.094;4.870;2022-08-19T09:25:07;101442.44;;;23.84;81.21
51496;BME280;37572;52.094;4.870;2022-08-19T09:27:32;101444.66;;;23.87;81.30
51496;BME280;37572;52.094;4.870;2022-08-19T09:29:58;101447.00;;;24.04;80.54
51496;BME280;37572;52.094;4.870;2022-08-19T09:32:24;101440.28;;;23.76;80.41
51496;BME280;37572;52.094;4.870;2022-08-19T09:34:51;101440.81;;;23.88;81.46
51496;BME280;37572;52.094;4.870;2022-08-19T09:37:19;101443.16;;;24.05;80.63
51496;BME280;37572;52.094;4.870;2022-08-19T09:39:45;101440.38;;;24.10;80.36
51496;BME280;37572;52.094;4.870;2022-08-19T09:42:10;101434.94;;;24.39;80.05
51496;BME280;37572;52.094;4.870;2022-08-19T09:44:40;101434.81;;;24.55;79.29
51496;BME280;37572;52.094;4.870;2022-08-19T09:47:07;101443.09;;;24.84;78.19
51496;BME280;37572;52.094;4.870;2022-08-19T09:49:33;101441.25;;;24.74;76.89
51496;BME280;37572;52.094;4.870;2022-08-19T09:51:58;101439.22;;;25.09;77.54
51496;BME280;37572;52.094;4.870;2022-08-19T09:54:24;101446.28;;;25.21;76.88
51496;BME280;37572;52.094;4.870;2022-08-19T09:56:51;101444.56;;;25.25;74.36
51496;BME280;37572;52.094;4.870;2022-08-19T09:59:16;101448.47;;;24.95;74.83
51496;BME280;37572;52.094;4.870;2022-08-19T10:01:41;101450.22;;;25.15;77.21
51496;BME280;37572;52.094;4.870;2022-08-19T10:04:07;101442.56;;;25.06;74.97
51496;BME280;37572;52.094;4.870;2022-08-19T10:06:37;101450.31;;;25.04;74.69
51496;BME280;37572;52.094;4.870;2022-08-19T10:09:08;101447.69;;;25.18;75.37
51496;BME280;37572;52.094;4.870;2022-08-19T10:11:36;101444.25;;;25.26;75.90
51496;BME280;37572;52.094;4.870;2022-08-19T10:14:04;101450.25;;;25.77;75.50
51496;BME280;37572;52.094;4.870;2022-08-19T10:16:31;101448.69;;;25.52;73.41
51496;BME280;37572;52.094;4.870;2022-08-19T10:18:57;101442.94;;;25.48;74.48
51496;BME280;37572;52.094;4.870;2022-08-19T10:21:26;101446.06;;;25.60;73.70
51496;BME280;37572;52.094;4.870;2022-08-19T10:23:55;101453.63;;;25.55;73.08
51496;BME280;37572;52.094;4.870;2022-08-19T10:26:24;101441.81;;;25.49;73.70
51496;BME280;37572;52.094;4.870;2022-08-19T10:28:50;101439.78;;;25.36;74.77
51496;BME280;37572;52.094;4.870;2022-08-19T10:31:20;101446.31;;;24.91;75.28
51496;BME280;37572;52.094;4.870;2022-08-19T10:33:47;101432.91;;;24.16;77.98
51496;BME280;37572;52.094;4.870;2022-08-19T10:36:19;101436.16;;;24.23;79.19
51496;BME280;37572;52.094;4.870;2022-08-19T10:38:46;101433.22;;;24.44;78.91
51496;BME280;37572;52.094;4.870;2022-08-19T10:41:17;101438.72;;;24.49;77.38
51496;BME280;37572;52.094;4.870;2022-08-19T10:43:43;101436.53;;;24.11;78.15
51496;BME280;37572;52.094;4.870;2022-08-19T10:46:13;101439.44;;;24.25;78.45
51496;BME280;37572;52.094;4.870;2022-08-19T10:48:40;101441.69;;;24.18;79.50
51496;BME280;37572;52.094;4.870;2022-08-19T10:51:05;101435.72;;;24.11;79.15
51496;BME280;37572;52.094;4.870;2022-08-19T10:53:50;101430.94;;;23.77;81.67
51496;BME280;37572;52.094;4.870;2022-08-19T10:56:16;101439.47;;;23.75;83.12
51496;BME280;37572;52.094;4.870;2022-08-19T10:59:00;101423.69;;;23.46;85.20
51496;BME280;37572;52.094;4.870;2022-08-19T11:01:26;101441.75;;;23.58;86.84
51496;BME280;37572;52.094;4.870;2022-08-19T11:03:52;101442.44;;;23.24;89.19
51496;BME280;37572;52.094;4.870;2022-08-19T11:06:18;101443.25;;;23.24;90.68
51496;BME280;37572;52.094;4.870;2022-08-19T11:08:44;101438.88;;;23.18;92.14
51496;BME280;37572;52.094;4.870;2022-08-19T11:11:11;101438.09;;;23.02;93.45
51496;BME280;37572;52.094;4.870;2022-08-19T11:13:38;101441.66;;;22.97;94.01
51496;BME280;37572;52.094;4.870;2022-08-19T11:16:12;101444.69;;;23.11;94.05
51496;BME280;37572;52.094;4.870;2022-08-19T11:18:41;101444.34;;;23.28;94.98
51496;BME280;37572;52.094;4.870;2022-08-19T11:23:48;101439.03;;;23.47;91.48
51496;BME280;37572;52.094;4.870;2022-08-19T11:26:14;101438.28;;;23.92;91.10
51496;BME280;37572;52.094;4.870;2022-08-19T11:28:41;101441.84;;;24.32;91.35
51496;BME280;37572;52.094;4.870;2022-08-19T11:31:16;101436.19;;;24.52;86.89
51496;BME280;37572;52.094;4.870;2022-08-19T11:33:42;101436.34;;;24.96;86.90
51496;BME280;37572;52.094;4.870;2022-08-19T11:36:08;101442.31;;;25.32;83.47
51496;BME280;37572;52.094;4.870;2022-08-19T11:38:34;101439.19;;;25.15;81.24
51496;BME280;37572;52.094;4.870;2022-08-19T11:41:04;101440.94;;;25.30;80.35
51496;BME280;37572;52.094;4.870;2022-08-19T11:43:30;101431.72;;;25.15;77.05
51496;BME280;37572;52.094;4.870;2022-08-19T11:45:57;101429.78;;;24.62;77.28
51496;BME280;37572;52.094;4.870;2022-08-19T11:48:24;101432.59;;;24.86;76.96
51496;BME280;37572;52.094;4.870;2022-08-19T11:50:51;101429.31;;;24.84;77.65
51496;BME280;37572;52.094;4.870;2022-08-19T11:53:18;101432.88;;;24.55;77.86
51496;BME280;37572;52.094;4.870;2022-08-19T11:55:46;101436.88;;;23.99;83.57
51496;BME280;37572;52.094;4.870;2022-08-19T11:58:12;101433.13;;;23.75;84.60
51496;BME280;37572;52.094;4.870;2022-08-19T12:00:39;101441.97;;;23.72;88.09
51496;BME280;37572;52.094;4.870;2022-08-19T12:03:05;101439.06;;;23.42;88.16
51496;BME280;37572;52.094;4.870;2022-08-19T12:05:31;101438.09;;;23.12;91.79
51496;BME280;37572;52.094;4.870;2022-08-19T12:07:56;101443.31;;;23.04;92.83
51496;BME280;37572;52.094;4.870;2022-08-19T12:10:22;101443.28;;;22.98;93.62
51496;BME280;37572;52.094;4.870;2022-08-19T12:12:48;101437.53;;;23.05;93.62
51496;BME280;37572;52.094;4.870;2022-08-19T12:15:14;101439.44;;;23.15;93.72
51496;BME280;37572;52.094;4.870;2022-08-19T12:17:40;101437.25;;;23.17;93.26
51496;BME280;37572;52.094;4.870;2022-08-19T12:20:08;101443.53;;;23.23;91.56
51496;BME280;37572;52.094;4.870;2022-08-19T12:22:34;101438.78;;;23.44;92.53
51496;BME280;37572;52.094;4.870;2022-08-19T12:25:00;101442.28;;;23.65;91.87
51496;BME280;37572;52.094;4.870;2022-08-19T12:27:26;101438.88;;;23.83;90.97
51496;BME280;37572;52.094;4.870;2022-08-19T12:29:52;101433.88;;;23.96;89.46
51496;BME280;37572;52.094;4.870;2022-08-19T12:32:17;101448.63;;;24.10;87.12
51496;BME280;37572;52.094;4.870;2022-08-19T12:34:43;101433.50;;;24.47;89.03
51496;BME280;37572;52.094;4.870;2022-08-19T12:37:08;101434.50;;;24.62;85.82
51496;BME280;37572;52.094;4.870;2022-08-19T12:39:41;101437.81;;;25.12;84.71
51496;BME280;37572;52.094;4.870;2022-08-19T12:42:08;101433.53;;;25.49;83.99
51496;BME280;37572;52.094;4.870;2022-08-19T12:44:34;101434.91;;;25.71;84.34
51496;BME280;37572;52.094;4.870;2022-08-19T12:47:00;101434.56;;;25.77;81.81
51496;BME280;37572;52.094;4.870;2022-08-19T12:49:28;101430.53;;;25.89;80.79
51496;BME280;37572;52.094;4.870;2022-08-19T12:51:54;101437.31;;;25.77;78.81
51496;BME280;37572;52.094;4.870;2022-08-19T12:54:19;101440.34;;;25.95;78.96
51496;BME280;37572;52.094;4.870;2022-08-19T12:56:45;101430.06;;;25.81;76.56